sensor_id;sensor_type;location;lat;lon;timestamp;temperature;humidity
71175;DHT22;58876;51.994;4.472;2023-02-15T00:01:07;5.12;80.58
71175;DHT22;58876;51.994;4.472;2023-02-15T00:03:32;5.09;80.49
71175;DHT22;58876;51.994;4.472;2023-02-15T00:05:58;5.04;80.51
71175;DHT22;58876;51.994;4.472;2023-02-15T00:08:23;4.99;80.66
71175;DHT22;58876;51.994;4.472;2023-02-15T00:10:49;4.99;80.99
71175;DHT22;58876;51.994;4.472;2023-02-15T00:13:14;4.96;81.14
71175;DHT22;58876;51.994;4.472;2023-02-15T00:15:40;5.04;81.28
71175;DHT22;58876;51.994;4.472;2023-02-15T00:18:05;5.11;80.65
71175;DHT22;58876;51.994;4.472;2023-02-15T00:20:30;5.04;80.38
71175;DHT22;58876;51.994;4.472;2023-02-15T00:22:56;4.96;80.58
71175;DHT22;58876;51.994;4.472;2023-02-15T00:25:21;4.95;80.69
71175;DHT22;58876;51.994;4.472;2023-02-15T00:27:47;4.93;80.85
71175;DHT22;58876;51.994;4.472;2023-02-15T00:30:12;4.96;80.69
71175;DHT22;58876;51.994;4.472;2023-02-15T00:32:38;4.91;80.47
71175;DHT22;58876;51.994;4.472;2023-02-15T00:35:03;4.91;80.80
71175;DHT22;58876;51.994;4.472;2023-02-15T00:37:29;4.92;80.94
71175;DHT22;58876;51.994;4.472;2023-02-15T00:39:54;4.98;80.88
71175;DHT22;58876;51.994;4.472;2023-02-15T00:42:20;4.99;81.09
71175;DHT22;58876;51.994;4.472;2023-02-15T00:44:45;4.96;81.36
71175;DHT22;58876;51.994;4.472;2023-02-15T00:47:11;4.92;81.22
71175;DHT22;58876;51.994;4.472;2023-02-15T00:49:36;4.88;81.37
71175;DHT22;58876;51.994;4.472;2023-02-15T00:52:02;4.85;81.35
71175;DHT22;58876;51.994;4.472;2023-02-15T00:54:27;4.81;81.13
71175;DHT22;58876;51.994;4.472;2023-02-15T00:56:52;4.82;81.24
71175;DHT22;58876;51.994;4.472;2023-02-15T00:59:18;4.95;81.28
71175;DHT22;58876;51.994;4.472;2023-02-15T01:01:43;5.05;81.47
71175;DHT22;58876;51.994;4.472;2023-02-15T01:04:09;5.20;82.02
71175;DHT22;58876;51.994;4.472;2023-02-15T01:06:34;5.29;82.00
71175;DHT22;58876;51.994;4.472;2023-02-15T01:09:00;5.23;81.95
71175;DHT22;58876;51.994;4.472;2023-02-15T01:11:25;5.13;81.83
71175;DHT22;58876;51.994;4.472;2023-02-15T01:13:56;5.08;81.54
71175;DHT22;58876;51.994;4.472;2023-02-15T01:16:25;5.02;81.44
71175;DHT22;58876;51.994;4.472;2023-02-15T01:18:51;4.93;81.21
71175;DHT22;58876;51.994;4.472;2023-02-15T01:21:19;4.93;81.32
71175;DHT22;58876;51.994;4.472;2023-02-15T01:23:45;4.85;81.14
71175;DHT22;58876;51.994;4.472;2023-02-15T01:26:11;4.74;81.29
71175;DHT22;58876;51.994;4.472;2023-02-15T01:28:37;4.65;81.37
71175;DHT22;58876;51.994;4.472;2023-02-15T01:31:13;4.60;81.70
71175;DHT22;58876;51.994;4.472;2023-02-15T01:33:39;4.62;81.90
71175;DHT22;58876;51.994;4.472;2023-02-15T01:36:05;4.62;81.73
71175;DHT22;58876;51.994;4.472;2023-02-15T01:38:31;4.68;81.80
71175;DHT22;58876;51.994;4.472;2023-02-15T01:40:57;4.58;81.69
71175;DHT22;58876;51.994;4.472;2023-02-15T01:43:44;4.54;81.87
71175;DHT22;58876;51.994;4.472;2023-02-15T01:46:14;4.58;82.11
71175;DHT22;58876;51.994;4.472;2023-02-15T01:48:47;4.72;81.97
71175;DHT22;58876;51.994;4.472;2023-02-15T01:51:17;4.65;81.62
71175;DHT22;58876;51.994;4.472;2023-02-15T01:53:52;4.64;81.86
71175;DHT22;58876;51.994;4.472;2023-02-15T01:56:28;4.60;81.68
71175;DHT22;58876;51.994;4.472;2023-02-15T01:58:59;4.58;81.69
71175;DHT22;58876;51.994;4.472;2023-02-15T02:01:27;4.61;81.91
71175;DHT22;58876;51.994;4.472;2023-02-15T02:06:28;4.58;81.76
71175;DHT22;58876;51.994;4.472;2023-02-15T02:08:55;4.47;81.78
71175;DHT22;58876;51.994;4.472;2023-02-15T02:11:21;4.38;81.97
71175;DHT22;58876;51.994;4.472;2023-02-15T02:13:50;4.37;81.95
71175;DHT22;58876;51.994;4.472;2023-02-15T02:16:24;4.32;82.14
71175;DHT22;58876;51.994;4.472;2023-02-15T02:25:10;4.37;81.93
71175;DHT22;58876;51.994;4.472;2023-02-15T02:33:19;4.46;81.81
71175;DHT22;58876;51.994;4.472;2023-02-15T02:44:31;4.44;82.11
71175;DHT22;58876;51.994;4.472;2023-02-15T02:47:10;4.51;81.93
71175;DHT22;58876;51.994;4.472;2023-02-15T02:49:42;4.43;81.88
71175;DHT22;58876;51.994;4.472;2023-02-15T02:52:46;4.37;82.02
71175;DHT22;58876;51.994;4.472;2023-02-15T03:01:02;4.14;82.15
71175;DHT22;58876;51.994;4.472;2023-02-15T03:03:45;4.13;82.20
71175;DHT22;58876;51.994;4.472;2023-02-15T03:06:19;4.26;82.27
71175;DHT22;58876;51.994;4.472;2023-02-15T03:08:50;4.38;82.35
71175;DHT22;58876;51.994;4.472;2023-02-15T03:11:18;4.36;82.30
71175;DHT22;58876;51.994;4.472;2023-02-15T03:13:45;4.33;82.13
71175;DHT22;58876;51.994;4.472;2023-02-15T03:16:14;4.38;81.94
71175;DHT22;58876;51.994;4.472;2023-02-15T03:21:46;4.16;81.44
71175;DHT22;58876;51.994;4.472;2023-02-15T03:24:32;4.13;81.53
71175;DHT22;58876;51.994;4.472;2023-02-15T03:27:04;4.14;81.99
71175;DHT22;58876;51.994;4.472;2023-02-15T03:29:34;4.13;81.91
71175;DHT22;58876;51.994;4.472;2023-02-15T03:32:04;4.09;82.29
71175;DHT22;58876;51.994;4.472;2023-02-15T03:34:31;4.13;82.30
71175;DHT22;58876;51.994;4.472;2023-02-15T03:37:18;4.10;82.39
71175;DHT22;58876;51.994;4.472;2023-02-15T03:39:55;4.11;82.24
71175;DHT22;58876;51.994;4.472;2023-02-15T03:42:33;4.09;82.03
71175;DHT22;58876;51.994;4.472;2023-02-15T03:45:06;4.09;81.96
71175;DHT22;58876;51.994;4.472;2023-02-15T03:47:38;4.09;82.14
71175;DHT22;58876;51.994;4.472;2023-02-15T03:50:22;4.10;82.01
71175;DHT22;58876;51.994;4.472;2023-02-15T03:53:13;4.09;81.62
71175;DHT22;58876;51.994;4.472;2023-02-15T03:55:39;3.97;81.39
71175;DHT22;58876;51.994;4.472;2023-02-15T03:58:04;3.83;81.35
71175;DHT22;58876;51.994;4.472;2023-02-15T04:01:03;3.97;82.37
71175;DHT22;58876;51.994;4.472;2023-02-15T04:03:57;3.97;81.57
71175;DHT22;58876;51.994;4.472;2023-02-15T04:06:23;3.82;81.16
71175;DHT22;58876;51.994;4.472;2023-02-15T04:08:48;3.72;81.55
71175;DHT22;58876;51.994;4.472;2023-02-15T04:11:32;3.82;81.91
71175;DHT22;58876;51.994;4.472;2023-02-15T04:13:58;3.69;81.65
71175;DHT22;58876;51.994;4.472;2023-02-15T04:16:24;3.68;81.87
71175;DHT22;58876;51.994;4.472;2023-02-15T04:18:49;3.59;81.95
71175;DHT22;58876;51.994;4.472;2023-02-15T04:21:33;3.62;82.12
71175;DHT22;58876;51.994;4.472;2023-02-15T04:24:18;3.62;81.96
71175;DHT22;58876;51.994;4.472;2023-02-15T04:27:03;3.55;82.21
71175;DHT22;58876;51.994;4.472;2023-02-15T04:29:30;3.59;82.35
71175;DHT22;58876;51.994;4.472;2023-02-15T04:31:58;3.72;82.31
71175;DHT22;58876;51.994;4.472;2023-02-15T04:34:24;3.66;82.02
71175;DHT22;58876;51.994;4.472;2023-02-15T04:36:49;3.64;81.85
71175;DHT22;58876;51.994;4.472;2023-02-15T04:39:17;3.59;81.91
71175;DHT22;58876;51.994;4.472;2023-02-15T04:41:42;3.61;82.07
71175;DHT22;58876;51.994;4.472;2023-02-15T04:44:08;3.64;81.78
71175;DHT22;58876;51.994;4.472;2023-02-15T04:46:34;3.58;81.35
71175;DHT22;58876;51.994;4.472;2023-02-15T04:48:59;3.62;81.55
71175;DHT22;58876;51.994;4.472;2023-02-15T04:51:25;3.65;81.59
71175;DHT22;58876;51.994;4.472;2023-02-15T04:53:50;3.55;81.63
71175;DHT22;58876;51.994;4.472;2023-02-15T04:56:18;3.52;81.95
71175;DHT22;58876;51.994;4.472;2023-02-15T04:58:44;3.58;81.90
71175;DHT22;58876;51.994;4.472;2023-02-15T05:01:10;3.54;81.90
71175;DHT22;58876;51.994;4.472;2023-02-15T05:03:36;3.54;82.15
71175;DHT22;58876;51.994;4.472;2023-02-15T05:06:02;3.55;81.94
71175;DHT22;58876;51.994;4.472;2023-02-15T05:08:28;3.58;81.95
71175;DHT22;58876;51.994;4.472;2023-02-15T05:10:53;3.68;81.87
71175;DHT22;58876;51.994;4.472;2023-02-15T05:13:19;3.69;82.08
71175;DHT22;58876;51.994;4.472;2023-02-15T05:15:51;3.83;82.09
71175;DHT22;58876;51.994;4.472;2023-02-15T05:18:19;3.72;81.93
71175;DHT22;58876;51.994;4.472;2023-02-15T05:20:45;3.62;82.00
71175;DHT22;58876;51.994;4.472;2023-02-15T05:23:10;3.58;82.15
71175;DHT22;58876;51.994;4.472;2023-02-15T05:25:39;3.66;82.75
71175;DHT22;58876;51.994;4.472;2023-02-15T05:28:26;3.81;82.62
71175;DHT22;58876;51.994;4.472;2023-02-15T05:31:16;3.74;82.38
71175;DHT22;58876;51.994;4.472;2023-02-15T05:33:42;3.68;82.38
71175;DHT22;58876;51.994;4.472;2023-02-15T05:36:08;3.71;82.51
71175;DHT22;58876;51.994;4.472;2023-02-15T05:38:34;3.75;82.70
71175;DHT22;58876;51.994;4.472;2023-02-15T05:41:02;3.81;82.81
71175;DHT22;58876;51.994;4.472;2023-02-15T05:43:27;3.90;82.87
71175;DHT22;58876;51.994;4.472;2023-02-15T05:45:54;4.02;82.64
71175;DHT22;58876;51.994;4.472;2023-02-15T05:48:22;3.89;82.35
71175;DHT22;58876;51.994;4.472;2023-02-15T05:51:00;3.89;82.51
71175;DHT22;58876;51.994;4.472;2023-02-15T05:53:28;4.02;82.53
71175;DHT22;58876;51.994;4.472;2023-02-15T05:55:54;3.93;82.16
71175;DHT22;58876;51.994;4.472;2023-02-15T05:58:29;3.78;82.05
71175;DHT22;58876;51.994;4.472;2023-02-15T06:00:54;3.69;81.88
71175;DHT22;58876;51.994;4.472;2023-02-15T06:03:20;3.58;81.65
71175;DHT22;58876;51.994;4.472;2023-02-15T06:05:46;3.66;82.16
71175;DHT22;58876;51.994;4.472;2023-02-15T06:08:11;3.78;82.16
71175;DHT22;58876;51.994;4.472;2023-02-15T06:10:36;3.76;82.04
71175;DHT22;58876;51.994;4.472;2023-02-15T06:13:02;3.85;82.80
71175;DHT22;58876;51.994;4.472;2023-02-15T06:15:27;3.92;82.45
71175;DHT22;58876;51.994;4.472;2023-02-15T06:17:53;3.95;82.32
71175;DHT22;58876;51.994;4.472;2023-02-15T06:20:18;3.86;82.22
71175;DHT22;58876;51.994;4.472;2023-02-15T06:22:44;3.87;82.61
71175;DHT22;58876;51.994;4.472;2023-02-15T06:25:09;3.92;82.88
71175;DHT22;58876;51.994;4.472;2023-02-15T06:27:37;3.96;82.89
71175;DHT22;58876;51.994;4.472;2023-02-15T06:30:05;4.11;82.96
71175;DHT22;58876;51.994;4.472;2023-02-15T06:32:31;4.11;82.57
71175;DHT22;58876;51.994;4.472;2023-02-15T06:34:57;4.06;82.56
71175;DHT22;58876;51.994;4.472;2023-02-15T06:37:22;4.03;82.68
71175;DHT22;58876;51.994;4.472;2023-02-15T06:39:48;4.14;82.68
71175;DHT22;58876;51.994;4.472;2023-02-15T06:42:15;4.16;82.48
71175;DHT22;58876;51.994;4.472;2023-02-15T06:44:40;4.14;82.41
71175;DHT22;58876;51.994;4.472;2023-02-15T06:47:06;4.07;82.02
71175;DHT22;58876;51.994;4.472;2023-02-15T06:49:31;3.92;82.07
71175;DHT22;58876;51.994;4.472;2023-02-15T06:51:57;3.85;82.31
71175;DHT22;58876;51.994;4.472;2023-02-15T06:54:22;3.79;82.35
71175;DHT22;58876;51.994;4.472;2023-02-15T06:56:47;3.85;82.41
71175;DHT22;58876;51.994;4.472;2023-02-15T06:59:13;3.86;82.36
71175;DHT22;58876;51.994;4.472;2023-02-15T07:01:38;3.81;82.36
71175;DHT22;58876;51.994;4.472;2023-02-15T07:04:04;3.82;82.27
71175;DHT22;58876;51.994;4.472;2023-02-15T07:06:33;3.75;82.31
71175;DHT22;58876;51.994;4.472;2023-02-15T07:08:59;3.72;82.41
71175;DHT22;58876;51.994;4.472;2023-02-15T07:11:24;3.81;82.34
71175;DHT22;58876;51.994;4.472;2023-02-15T07:14:09;3.87;81.78
71175;DHT22;58876;51.994;4.472;2023-02-15T07:16:34;3.93;81.88
71175;DHT22;58876;51.994;4.472;2023-02-15T07:19:00;3.97;81.86
71175;DHT22;58876;51.994;4.472;2023-02-15T07:21:25;4.02;81.82
71175;DHT22;58876;51.994;4.472;2023-02-15T07:23:51;4.03;82.11
71175;DHT22;58876;51.994;4.472;2023-02-15T07:26:17;4.14;82.34
71175;DHT22;58876;51.994;4.472;2023-02-15T07:28:42;4.30;82.30
71175;DHT22;58876;51.994;4.472;2023-02-15T07:31:07;4.38;82.09
71175;DHT22;58876;51.994;4.472;2023-02-15T07:33:34;4.46;81.78
71175;DHT22;58876;51.994;4.472;2023-02-15T07:36:02;4.53;81.76
71175;DHT22;58876;51.994;4.472;2023-02-15T07:38:33;4.68;81.89
71175;DHT22;58876;51.994;4.472;2023-02-15T07:41:01;4.91;81.25
71175;DHT22;58876;51.994;4.472;2023-02-15T07:43:28;5.06;81.00
71175;DHT22;58876;51.994;4.472;2023-02-15T07:45:59;5.40;80.29
71175;DHT22;58876;51.994;4.472;2023-02-15T07:48:25;5.60;79.63
71175;DHT22;58876;51.994;4.472;2023-02-15T07:50:50;5.78;79.05
71175;DHT22;58876;51.994;4.472;2023-02-15T07:53:15;5.78;78.65
71175;DHT22;58876;51.994;4.472;2023-02-15T07:55:41;5.85;79.12
71175;DHT22;58876;51.994;4.472;2023-02-15T07:58:06;5.81;79.07
71175;DHT22;58876;51.994;4.472;2023-02-15T08:00:32;5.87;79.27
71175;DHT22;58876;51.994;4.472;2023-02-15T08:03:17;5.88;79.11
71175;DHT22;58876;51.994;4.472;2023-02-15T08:05:44;5.85;79.57
71175;DHT22;58876;51.994;4.472;2023-02-15T08:08:11;5.77;79.78
71175;DHT22;58876;51.994;4.472;2023-02-15T08:11:06;5.78;80.09
71175;DHT22;58876;51.994;4.472;2023-02-15T08:19:08;5.91;80.48
71175;DHT22;58876;51.994;4.472;2023-02-15T08:21:37;6.01;80.34
71175;DHT22;58876;51.994;4.472;2023-02-15T08:24:04;6.14;80.42
71175;DHT22;58876;51.994;4.472;2023-02-15T08:26:30;6.19;80.22
71175;DHT22;58876;51.994;4.472;2023-02-15T08:28:56;6.19;80.04
71175;DHT22;58876;51.994;4.472;2023-02-15T08:31:22;6.28;80.23
71175;DHT22;58876;51.994;4.472;2023-02-15T08:33:50;6.30;79.98
71175;DHT22;58876;51.994;4.472;2023-02-15T08:36:19;6.50;79.82
71175;DHT22;58876;51.994;4.472;2023-02-15T08:38:45;6.54;79.58
71175;DHT22;58876;51.994;4.472;2023-02-15T08:41:22;6.60;79.56
71175;DHT22;58876;51.994;4.472;2023-02-15T08:43:51;6.69;79.70
71175;DHT22;58876;51.994;4.472;2023-02-15T08:46:17;6.77;79.31
71175;DHT22;58876;51.994;4.472;2023-02-15T08:48:44;6.84;79.71
71175;DHT22;58876;51.994;4.472;2023-02-15T08:51:13;7.00;79.78
71175;DHT22;58876;51.994;4.472;2023-02-15T08:53:40;7.09;78.75
71175;DHT22;58876;51.994;4.472;2023-02-15T08:56:07;7.22;79.38
71175;DHT22;58876;51.994;4.472;2023-02-15T08:58:33;7.34;79.34
71175;DHT22;58876;51.994;4.472;2023-02-15T09:00:59;7.42;78.85
71175;DHT22;58876;51.994;4.472;2023-02-15T09:03:28;7.56;78.84
71175;DHT22;58876;51.994;4.472;2023-02-15T09:06:01;7.70;78.68
71175;DHT22;58876;51.994;4.472;2023-02-15T09:08:28;7.82;78.47
71175;DHT22;58876;51.994;4.472;2023-02-15T09:10:54;7.80;77.22
71175;DHT22;58876;51.994;4.472;2023-02-15T09:13:20;7.77;77.17
71175;DHT22;58876;51.994;4.472;2023-02-15T09:15:46;7.84;77.26
71175;DHT22;58876;51.994;4.472;2023-02-15T09:18:11;7.84;77.36
71175;DHT22;58876;51.994;4.472;2023-02-15T09:20:43;8.03;77.65
71175;DHT22;58876;51.994;4.472;2023-02-15T09:23:09;8.20;78.30
71175;DHT22;58876;51.994;4.472;2023-02-15T09:25:35;8.33;77.66
71175;DHT22;58876;51.994;4.472;2023-02-15T09:28:00;8.54;76.21
71175;DHT22;58876;51.994;4.472;2023-02-15T09:30:26;8.40;77.16
71175;DHT22;58876;51.994;4.472;2023-02-15T09:32:51;8.58;76.94
71175;DHT22;58876;51.994;4.472;2023-02-15T09:35:17;8.72;76.38
71175;DHT22;58876;51.994;4.472;2023-02-15T09:37:42;9.00;75.66
71175;DHT22;58876;51.994;4.472;2023-02-15T09:40:08;9.12;74.54
71175;DHT22;58876;51.994;4.472;2023-02-15T09:45:42;9.51;73.81
71175;DHT22;58876;51.994;4.472;2023-02-15T09:48:35;9.71;73.95
71175;DHT22;58876;51.994;4.472;2023-02-15T09:51:26;9.75;72.78
71175;DHT22;58876;51.994;4.472;2023-02-15T09:54:22;9.61;72.40
71175;DHT22;58876;51.994;4.472;2023-02-15T09:56:56;9.44;70.54
71175;DHT22;58876;51.994;4.472;2023-02-15T09:59:47;9.41;71.50
71175;DHT22;58876;51.994;4.472;2023-02-15T10:08:27;9.35;70.53
71175;DHT22;58876;51.994;4.472;2023-02-15T10:16:43;9.67;69.50
71175;DHT22;58876;51.994;4.472;2023-02-15T10:27:45;9.59;69.32
71175;DHT22;58876;51.994;4.472;2023-02-15T10:30:27;9.83;69.21
71175;DHT22;58876;51.994;4.472;2023-02-15T10:33:27;9.88;67.98
71175;DHT22;58876;51.994;4.472;2023-02-15T10:46:55;10.29;67.42
71175;DHT22;58876;51.994;4.472;2023-02-15T10:54:49;10.53;66.43
71175;DHT22;58876;51.994;4.472;2023-02-15T11:05:30;10.84;65.33
71175;DHT22;58876;51.994;4.472;2023-02-15T11:08:05;10.51;65.86
71175;DHT22;58876;51.994;4.472;2023-02-15T11:10:50;10.54;65.78
71175;DHT22;58876;51.994;4.472;2023-02-15T11:13:19;10.81;66.36
71175;DHT22;58876;51.994;4.472;2023-02-15T11:16:00;11.02;65.26
71175;DHT22;58876;51.994;4.472;2023-02-15T11:18:34;10.87;64.92
71175;DHT22;58876;51.994;4.472;2023-02-15T11:23:49;10.85;65.01
71175;DHT22;58876;51.994;4.472;2023-02-15T11:26:24;10.78;65.92
71175;DHT22;58876;51.994;4.472;2023-02-15T11:29:01;10.67;66.06
71175;DHT22;58876;51.994;4.472;2023-02-15T11:31:46;10.85;65.13
71175;DHT22;58876;51.994;4.472;2023-02-15T11:34:40;11.22;64.67
71175;DHT22;58876;51.994;4.472;2023-02-15T11:37:15;11.31;64.36
71175;DHT22;58876;51.994;4.472;2023-02-15T11:39:42;11.02;64.70
71175;DHT22;58876;51.994;4.472;2023-02-15T11:42:20;10.84;65.40
71175;DHT22;58876;51.994;4.472;2023-02-15T11:44:56;10.95;65.90
71175;DHT22;58876;51.994;4.472;2023-02-15T11:47:23;11.11;65.01
71175;DHT22;58876;51.994;4.472;2023-02-15T11:49:49;11.15;64.71
71175;DHT22;58876;51.994;4.472;2023-02-15T11:52:17;11.29;64.44
71175;DHT22;58876;51.994;4.472;2023-02-15T11:54:47;11.55;64.22
71175;DHT22;58876;51.994;4.472;2023-02-15T11:57:39;11.80;63.45
71175;DHT22;58876;51.994;4.472;2023-02-15T12:03:24;11.81;63.46
71175;DHT22;58876;51.994;4.472;2023-02-15T12:06:01;11.77;62.59
71175;DHT22;58876;51.994;4.472;2023-02-15T12:08:40;11.86;62.61
71175;DHT22;58876;51.994;4.472;2023-02-15T12:11:14;11.76;62.51
71175;DHT22;58876;51.994;4.472;2023-02-15T12:14:02;11.86;62.05
71175;DHT22;58876;51.994;4.472;2023-02-15T12:16:29;12.22;61.87
71175;DHT22;58876;51.994;4.472;2023-02-15T12:19:00;12.18;62.00
71175;DHT22;58876;51.994;4.472;2023-02-15T12:21:29;12.35;62.37
71175;DHT22;58876;51.994;4.472;2023-02-15T12:24:08;12.35;60.87
71175;DHT22;58876;51.994;4.472;2023-02-15T12:26:35;12.50;60.84
71175;DHT22;58876;51.994;4.472;2023-02-15T12:29:15;12.66;60.53
71175;DHT22;58876;51.994;4.472;2023-02-15T12:31:44;12.53;61.41
71175;DHT22;58876;51.994;4.472;2023-02-15T12:34:26;12.56;60.16
71175;DHT22;58876;51.994;4.472;2023-02-15T12:36:57;12.69;60.52
71175;DHT22;58876;51.994;4.472;2023-02-15T12:39:28;12.63;60.07
71175;DHT22;58876;51.994;4.472;2023-02-15T12:44:33;12.59;60.49
71175;DHT22;58876;51.994;4.472;2023-02-15T12:47:03;12.60;60.52
71175;DHT22;58876;51.994;4.472;2023-02-15T12:49:34;12.65;61.15
71175;DHT22;58876;51.994;4.472;2023-02-15T12:52:10;12.79;61.23
71175;DHT22;58876;51.994;4.472;2023-02-15T12:54:48;12.79;61.97
71175;DHT22;58876;51.994;4.472;2023-02-15T12:57:25;12.76;60.73
71175;DHT22;58876;51.994;4.472;2023-02-15T12:59:59;12.55;60.85
71175;DHT22;58876;51.994;4.472;2023-02-15T13:04:56;12.58;62.30
71175;DHT22;58876;51.994;4.472;2023-02-15T13:07:25;12.50;61.99
71175;DHT22;58876;51.994;4.472;2023-02-15T13:09:54;12.37;61.49
71175;DHT22;58876;51.994;4.472;2023-02-15T13:12:23;12.05;61.82
71175;DHT22;58876;51.994;4.472;2023-02-15T13:14:54;12.11;61.37
71175;DHT22;58876;51.994;4.472;2023-02-15T13:17:32;12.13;62.43
71175;DHT22;58876;51.994;4.472;2023-02-15T13:20:20;12.34;61.42
71175;DHT22;58876;51.994;4.472;2023-02-15T13:22:52;12.44;61.10
71175;DHT22;58876;51.994;4.472;2023-02-15T13:25:22;12.22;61.49
71175;DHT22;58876;51.994;4.472;2023-02-15T13:27:55;12.34;62.50
71175;DHT22;58876;51.994;4.472;2023-02-15T13:30:26;12.59;61.01
71175;DHT22;58876;51.994;4.472;2023-02-15T13:33:00;12.80;60.90
71175;DHT22;58876;51.994;4.472;2023-02-15T13:35:42;12.38;61.66
71175;DHT22;58876;51.994;4.472;2023-02-15T13:38:55;12.45;62.08
71175;DHT22;58876;51.994;4.472;2023-02-15T13:41:00;12.35;61.84
71175;DHT22;58876;51.994;4.472;2023-02-15T13:43:40;12.53;62.37
71175;DHT22;58876;51.994;4.472;2023-02-15T13:46:42;12.63;61.79
71175;DHT22;58876;51.994;4.472;2023-02-15T13:52:02;12.89;60.88
71175;DHT22;58876;51.994;4.472;2023-02-15T13:54:44;12.93;60.50
71175;DHT22;58876;51.994;4.472;2023-02-15T14:05:21;12.92;60.49
71175;DHT22;58876;51.994;4.472;2023-02-15T14:10:59;13.40;59.97
71175;DHT22;58876;51.994;4.472;2023-02-15T14:14:11;13.64;59.46
71175;DHT22;58876;51.994;4.472;2023-02-15T14:16:59;13.59;58.47
71175;DHT22;58876;51.994;4.472;2023-02-15T14:25:48;13.46;59.01
71175;DHT22;58876;51.994;4.472;2023-02-15T14:28:05;13.37;58.86
71175;DHT22;58876;51.994;4.472;2023-02-15T14:30:40;13.11;58.11
71175;DHT22;58876;51.994;4.472;2023-02-15T14:33:32;13.02;58.49
71175;DHT22;58876;51.994;4.472;2023-02-15T14:36:00;12.65;59.96
71175;DHT22;58876;51.994;4.472;2023-02-15T14:41:10;12.18;61.02
71175;DHT22;58876;51.994;4.472;2023-02-15T14:49:15;12.63;60.18
71175;DHT22;58876;51.994;4.472;2023-02-15T15:02:20;12.55;61.29
71175;DHT22;58876;51.994;4.472;2023-02-15T15:04:59;12.44;61.98
71175;DHT22;58876;51.994;4.472;2023-02-15T15:07:53;12.48;62.03
71175;DHT22;58876;51.994;4.472;2023-02-15T15:18:04;12.08;63.64
71175;DHT22;58876;51.994;4.472;2023-02-15T15:20:37;12.22;63.45
71175;DHT22;58876;51.994;4.472;2023-02-15T15:36:36;12.44;63.65
71175;DHT22;58876;51.994;4.472;2023-02-15T15:42:30;12.34;63.51
71175;DHT22;58876;51.994;4.472;2023-02-15T15:48:06;12.29;64.20
71175;DHT22;58876;51.994;4.472;2023-02-15T15:50:39;12.20;64.19
71175;DHT22;58876;51.994;4.472;2023-02-15T15:53:18;12.07;64.89
71175;DHT22;58876;51.994;4.472;2023-02-15T15:55:47;11.95;64.99
71175;DHT22;58876;51.994;4.472;2023-02-15T15:58:17;11.81;65.59
71175;DHT22;58876;51.994;4.472;2023-02-15T16:00:49;11.91;65.63
71175;DHT22;58876;51.994;4.472;2023-02-15T16:03:21;11.95;65.46
71175;DHT22;58876;51.994;4.472;2023-02-15T16:05:47;11.93;65.93
71175;DHT22;58876;51.994;4.472;2023-02-15T16:08:38;11.91;66.32
71175;DHT22;58876;51.994;4.472;2023-02-15T16:11:23;11.83;66.62
71175;DHT22;58876;51.994;4.472;2023-02-15T16:13:49;11.84;66.65
71175;DHT22;58876;51.994;4.472;2023-02-15T16:16:24;11.89;66.64
71175;DHT22;58876;51.994;4.472;2023-02-15T16:18:55;11.66;66.96
71175;DHT22;58876;51.994;4.472;2023-02-15T16:21:27;11.62;67.35
71175;DHT22;58876;51.994;4.472;2023-02-15T16:27:06;11.65;67.42
71175;DHT22;58876;51.994;4.472;2023-02-15T16:29:34;11.56;67.72
71175;DHT22;58876;51.994;4.472;2023-02-15T16:34:57;11.50;68.21
71175;DHT22;58876;51.994;4.472;2023-02-15T16:37:26;11.42;68.52
71175;DHT22;58876;51.994;4.472;2023-02-15T16:39:54;11.39;68.55
71175;DHT22;58876;51.994;4.472;2023-02-15T16:42:23;11.38;68.56
71175;DHT22;58876;51.994;4.472;2023-02-15T16:45:12;11.26;69.07
71175;DHT22;58876;51.994;4.472;2023-02-15T16:47:43;11.33;68.85
71175;DHT22;58876;51.994;4.472;2023-02-15T16:50:20;11.31;68.72
71175;DHT22;58876;51.994;4.472;2023-02-15T16:52:48;11.16;69.12
71175;DHT22;58876;51.994;4.472;2023-02-15T16:55:23;11.19;69.08
71175;DHT22;58876;51.994;4.472;2023-02-15T16:57:51;11.09;69.26
71175;DHT22;58876;51.994;4.472;2023-02-15T17:00:25;11.12;69.04
71175;DHT22;58876;51.994;4.472;2023-02-15T17:03:19;10.97;69.04
71175;DHT22;58876;51.994;4.472;2023-02-15T17:08:16;11.01;68.01
71175;DHT22;58876;51.994;4.472;2023-02-15T17:11:00;10.92;67.75
71175;DHT22;58876;51.994;4.472;2023-02-15T17:13:28;10.82;67.56
71175;DHT22;58876;51.994;4.472;2023-02-15T17:18:29;10.82;66.92
71175;DHT22;58876;51.994;4.472;2023-02-15T17:21:08;10.85;66.56
71175;DHT22;58876;51.994;4.472;2023-02-15T17:23:43;10.88;66.37
71175;DHT22;58876;51.994;4.472;2023-02-15T17:26:23;10.88;66.24
71175;DHT22;58876;51.994;4.472;2023-02-15T17:28:53;10.92;66.25
71175;DHT22;58876;51.994;4.472;2023-02-15T17:31:20;10.94;66.09
71175;DHT22;58876;51.994;4.472;2023-02-15T17:33:47;10.77;66.52
71175;DHT22;58876;51.994;4.472;2023-02-15T17:36:18;10.91;66.16
71175;DHT22;58876;51.994;4.472;2023-02-15T17:41:22;10.78;66.47
71175;DHT22;58876;51.994;4.472;2023-02-15T17:43:48;10.74;66.57
71175;DHT22;58876;51.994;4.472;2023-02-15T17:46:13;10.71;66.74
71175;DHT22;58876;51.994;4.472;2023-02-15T17:48:41;10.70;66.63
71175;DHT22;58876;51.994;4.472;2023-02-15T17:51:11;10.65;66.63
71175;DHT22;58876;51.994;4.472;2023-02-15T17:53:38;10.67;67.00
71175;DHT22;58876;51.994;4.472;2023-02-15T17:56:03;10.81;66.60
71175;DHT22;58876;51.994;4.472;2023-02-15T17:58:35;10.77;67.01
71175;DHT22;58876;51.994;4.472;2023-02-15T18:01:06;10.74;67.26
71175;DHT22;58876;51.994;4.472;2023-02-15T18:03:52;10.74;67.60
71175;DHT22;58876;51.994;4.472;2023-02-15T18:06:39;10.64;67.85
71175;DHT22;58876;51.994;4.472;2023-02-15T18:09:24;10.63;68.16
71175;DHT22;58876;51.994;4.472;2023-02-15T18:14:37;10.59;68.15
71175;DHT22;58876;51.994;4.472;2023-02-15T18:17:03;10.53;68.50
71175;DHT22;58876;51.994;4.472;2023-02-15T18:19:30;10.54;68.52
71175;DHT22;58876;51.994;4.472;2023-02-15T18:21:56;10.59;68.36
71175;DHT22;58876;51.994;4.472;2023-02-15T18:24:24;10.53;68.38
71175;DHT22;58876;51.994;4.472;2023-02-15T18:26:51;10.43;69.02
71175;DHT22;58876;51.994;4.472;2023-02-15T18:29:17;10.50;68.99
71175;DHT22;58876;51.994;4.472;2023-02-15T18:31:46;10.50;69.00
71175;DHT22;58876;51.994;4.472;2023-02-15T18:34:27;10.43;69.08
71175;DHT22;58876;51.994;4.472;2023-02-15T18:36:55;10.54;68.65
71175;DHT22;58876;51.994;4.472;2023-02-15T18:41:47;10.47;68.64
71175;DHT22;58876;51.994;4.472;2023-02-15T18:44:12;10.53;68.28
71175;DHT22;58876;51.994;4.472;2023-02-15T18:46:38;10.50;67.99
71175;DHT22;58876;51.994;4.472;2023-02-15T18:49:03;10.32;68.47
71175;DHT22;58876;51.994;4.472;2023-02-15T18:51:30;10.24;68.65
71175;DHT22;58876;51.994;4.472;2023-02-15T18:53:58;10.28;68.45
71175;DHT22;58876;51.994;4.472;2023-02-15T18:56:23;10.24;68.46
71175;DHT22;58876;51.994;4.472;2023-02-15T18:58:49;10.22;68.68
71175;DHT22;58876;51.994;4.472;2023-02-15T19:01:20;10.20;68.52
71175;DHT22;58876;51.994;4.472;2023-02-15T19:03:47;10.19;68.58
71175;DHT22;58876;51.994;4.472;2023-02-15T19:06:17;10.08;68.80